sensor_id;sensor_type;location;lat;lon;timestamp;P1;durP1;ratioP1;P2;durP2;ratioP2
18159;SDS011;9205;52.032;4.314;2023-02-28T00:00:31;5.23;;;1.70;;
18159;SDS011;9205;52.032;4.314;2023-02-28T00:03:04;1.87;;;1.40;;
18159;SDS011;9205;52.032;4.314;2023-02-28T00:05:37;4.27;;;1.53;;
18159;SDS011;9205;52.032;4.314;2023-02-28T00:08:11;2.03;;;1.50;;
18159;SDS011;9205;52.032;4.314;2023-02-28T00:10:38;3.97;;;1.63;;
18159;SDS011;9205;52.032;4.314;2023-02-28T00:13:06;2.83;;;1.50;;
18159;SDS011;9205;52.032;4.314;2023-02-28T00:15:37;5.57;;;1.87;;
18159;SDS011;9205;52.032;4.314;2023-02-28T00:18:07;2.70;;;1.80;;
18159;SDS011;9205;52.032;4.314;2023-02-28T00:20:37;1.50;;;1.40;;
18159;SDS011;9205;52.032;4.314;2023-02-28T00:23:05;3.40;;;1.60;;
18159;SDS011;9205;52.032;4.314;2023-02-28T00:25:38;2.47;;;1.40;;
18159;SDS011;9205;52.032;4.314;2023-02-28T00:28:08;1.93;;;1.30;;
18159;SDS011;9205;52.032;4.314;2023-02-28T00:30:36;2.47;;;1.40;;
18159;SDS011;9205;52.032;4.314;2023-02-28T00:33:04;1.53;;;1.20;;
18159;SDS011;9205;52.032;4.314;2023-02-28T00:35:33;2.23;;;1.50;;
18159;SDS011;9205;52.032;4.314;2023-02-28T00:38:01;2.57;;;1.40;;
18159;SDS011;9205;52.032;4.314;2023-02-28T00:40:29;1.37;;;1.10;;
18159;SDS011;9205;52.032;4.314;2023-02-28T00:42:57;3.23;;;1.47;;
18159;SDS011;9205;52.032;4.314;2023-02-28T00:45:26;1.67;;;1.30;;
18159;SDS011;9205;52.032;4.314;2023-02-28T00:47:56;1.90;;;1.40;;
18159;SDS011;9205;52.032;4.314;2023-02-28T00:50:26;6.27;;;1.80;;
18159;SDS011;9205;52.032;4.314;2023-02-28T00:52:56;1.73;;;1.50;;
18159;SDS011;9205;52.032;4.314;2023-02-28T00:55:23;4.27;;;1.90;;
18159;SDS011;9205;52.032;4.314;2023-02-28T00:57:51;1.30;;;1.20;;
18159;SDS011;9205;52.032;4.314;2023-02-28T01:00:22;1.97;;;1.30;;
18159;SDS011;9205;52.032;4.314;2023-02-28T01:02:55;1.37;;;1.20;;
18159;SDS011;9205;52.032;4.314;2023-02-28T01:05:23;4.23;;;1.40;;
18159;SDS011;9205;52.032;4.314;2023-02-28T01:07:55;1.30;;;1.13;;
18159;SDS011;9205;52.032;4.314;2023-02-28T01:10:24;1.67;;;1.30;;
18159;SDS011;9205;52.032;4.314;2023-02-28T01:13:00;2.73;;;1.50;;
18159;SDS011;9205;52.032;4.314;2023-02-28T01:15:49;3.93;;;1.30;;
18159;SDS011;9205;52.032;4.314;2023-02-28T01:18:18;3.97;;;1.40;;
18159;SDS011;9205;52.032;4.314;2023-02-28T01:20:49;1.50;;;1.40;;
18159;SDS011;9205;52.032;4.314;2023-02-28T01:23:18;2.30;;;1.30;;
18159;SDS011;9205;52.032;4.314;2023-02-28T01:25:47;3.27;;;1.40;;
18159;SDS011;9205;52.032;4.314;2023-02-28T01:28:15;1.73;;;1.20;;
18159;SDS011;9205;52.032;4.314;2023-02-28T01:30:46;2.20;;;1.50;;
18159;SDS011;9205;52.032;4.314;2023-02-28T01:33:16;1.73;;;1.30;;
18159;SDS011;9205;52.032;4.314;2023-02-28T01:35:43;2.40;;;1.70;;
18159;SDS011;9205;52.032;4.314;2023-02-28T01:38:13;2.10;;;1.60;;
18159;SDS011;9205;52.032;4.314;2023-02-28T01:40:41;2.10;;;1.50;;
18159;SDS011;9205;52.032;4.314;2023-02-28T01:43:10;2.20;;;1.30;;
18159;SDS011;9205;52.032;4.314;2023-02-28T01:45:51;2.10;;;1.63;;
18159;SDS011;9205;52.032;4.314;2023-02-28T01:48:21;2.03;;;1.40;;
18159;SDS011;9205;52.032;4.314;2023-02-28T01:50:53;2.57;;;1.53;;
18159;SDS011;9205;52.032;4.314;2023-02-28T01:53:29;2.23;;;1.60;;
18159;SDS011;9205;52.032;4.314;2023-02-28T01:56:04;2.77;;;1.70;;
18159;SDS011;9205;52.032;4.314;2023-02-28T01:58:38;2.60;;;1.40;;
18159;SDS011;9205;52.032;4.314;2023-02-28T02:01:09;2.70;;;1.60;;
18159;SDS011;9205;52.032;4.314;2023-02-28T02:03:47;2.17;;;1.57;;
18159;SDS011;9205;52.032;4.314;2023-02-28T02:06:21;2.37;;;1.60;;
18159;SDS011;9205;52.032;4.314;2023-02-28T02:08:51;3.47;;;2.27;;
18159;SDS011;9205;52.032;4.314;2023-02-28T02:11:22;3.10;;;1.50;;
18159;SDS011;9205;52.032;4.314;2023-02-28T02:14:13;2.83;;;1.70;;
18159;SDS011;9205;52.032;4.314;2023-02-28T02:17:15;3.80;;;1.70;;
18159;SDS011;9205;52.032;4.314;2023-02-28T02:20:11;3.53;;;1.80;;
18159;SDS011;9205;52.032;4.314;2023-02-28T02:33:03;4.50;;;1.83;;
18159;SDS011;9205;52.032;4.314;2023-02-28T02:35:55;4.90;;;1.70;;
18159;SDS011;9205;52.032;4.314;2023-02-28T02:38:32;3.17;;;1.93;;
18159;SDS011;9205;52.032;4.314;2023-02-28T02:41:11;4.27;;;1.60;;
18159;SDS011;9205;52.032;4.314;2023-02-28T02:43:50;2.10;;;1.90;;
18159;SDS011;9205;52.032;4.314;2023-02-28T02:46:25;3.97;;;1.90;;
18159;SDS011;9205;52.032;4.314;2023-02-28T02:48:58;2.27;;;1.53;;
18159;SDS011;9205;52.032;4.314;2023-02-28T02:51:32;3.03;;;1.90;;
18159;SDS011;9205;52.032;4.314;2023-02-28T02:54:11;5.23;;;1.90;;
18159;SDS011;9205;52.032;4.314;2023-02-28T02:56:44;5.03;;;1.93;;
18159;SDS011;9205;52.032;4.314;2023-02-28T02:59:18;2.63;;;1.70;;
18159;SDS011;9205;52.032;4.314;2023-02-28T03:01:50;4.23;;;2.00;;
18159;SDS011;9205;52.032;4.314;2023-02-28T03:04:24;4.00;;;2.10;;
18159;SDS011;9205;52.032;4.314;2023-02-28T03:07:20;4.03;;;2.30;;
18159;SDS011;9205;52.032;4.314;2023-02-28T03:09:51;2.93;;;2.10;;
18159;SDS011;9205;52.032;4.314;2023-02-28T03:12:22;2.17;;;1.80;;
18159;SDS011;9205;52.032;4.314;2023-02-28T03:15:00;4.47;;;2.00;;
18159;SDS011;9205;52.032;4.314;2023-02-28T03:17:52;2.80;;;2.10;;
18159;SDS011;9205;52.032;4.314;2023-02-28T03:20:38;3.10;;;2.00;;
18159;SDS011;9205;52.032;4.314;2023-02-28T03:23:19;3.23;;;1.80;;
18159;SDS011;9205;52.032;4.314;2023-02-28T03:26:02;3.10;;;2.00;;
18159;SDS011;9205;52.032;4.314;2023-02-28T03:28:38;2.93;;;2.03;;
18159;SDS011;9205;52.032;4.314;2023-02-28T03:31:20;5.10;;;2.00;;
18159;SDS011;9205;52.032;4.314;2023-02-28T03:34:03;3.13;;;2.00;;
18159;SDS011;9205;52.032;4.314;2023-02-28T03:36:38;7.10;;;2.03;;
18159;SDS011;9205;52.032;4.314;2023-02-28T03:39:14;4.17;;;2.37;;
18159;SDS011;9205;52.032;4.314;2023-02-28T03:41:51;4.77;;;2.40;;
18159;SDS011;9205;52.032;4.314;2023-02-28T03:44:36;3.03;;;2.00;;
18159;SDS011;9205;52.032;4.314;2023-02-28T03:47:10;3.97;;;2.00;;
18159;SDS011;9205;52.032;4.314;2023-02-28T03:49:49;4.50;;;2.10;;
18159;SDS011;9205;52.032;4.314;2023-02-28T03:52:22;6.00;;;2.70;;
18159;SDS011;9205;52.032;4.314;2023-02-28T03:55:00;2.57;;;1.90;;
18159;SDS011;9205;52.032;4.314;2023-02-28T03:57:36;3.67;;;2.00;;
18159;SDS011;9205;52.032;4.314;2023-02-28T04:00:16;4.13;;;2.23;;
18159;SDS011;9205;52.032;4.314;2023-02-28T04:02:53;5.63;;;2.53;;
18159;SDS011;9205;52.032;4.314;2023-02-28T04:05:21;2.80;;;2.30;;
18159;SDS011;9205;52.032;4.314;2023-02-28T04:07:50;3.10;;;2.30;;
18159;SDS011;9205;52.032;4.314;2023-02-28T04:10:19;5.87;;;2.53;;
18159;SDS011;9205;52.032;4.314;2023-02-28T04:12:49;3.57;;;2.07;;
18159;SDS011;9205;52.032;4.314;2023-02-28T04:15:16;4.13;;;2.70;;
18159;SDS011;9205;52.032;4.314;2023-02-28T04:17:51;2.63;;;2.13;;
18159;SDS011;9205;52.032;4.314;2023-02-28T04:20:18;4.87;;;2.20;;
18159;SDS011;9205;52.032;4.314;2023-02-28T04:22:46;4.00;;;2.70;;
18159;SDS011;9205;52.032;4.314;2023-02-28T04:25:14;3.03;;;2.13;;
18159;SDS011;9205;52.032;4.314;2023-02-28T04:27:43;2.73;;;2.10;;
18159;SDS011;9205;52.032;4.314;2023-02-28T04:30:13;6.07;;;2.30;;
18159;SDS011;9205;52.032;4.314;2023-02-28T04:32:41;4.17;;;2.37;;
18159;SDS011;9205;52.032;4.314;2023-02-28T04:35:09;5.00;;;2.60;;
18159;SDS011;9205;52.032;4.314;2023-02-28T04:37:39;2.90;;;2.30;;
18159;SDS011;9205;52.032;4.314;2023-02-28T04:40:09;3.80;;;2.47;;
18159;SDS011;9205;52.032;4.314;2023-02-28T04:42:37;5.07;;;2.60;;
18159;SDS011;9205;52.032;4.314;2023-02-28T04:45:09;3.60;;;2.10;;
18159;SDS011;9205;52.032;4.314;2023-02-28T04:47:37;4.07;;;2.50;;
18159;SDS011;9205;52.032;4.314;2023-02-28T04:50:05;5.97;;;2.50;;
18159;SDS011;9205;52.032;4.314;2023-02-28T04:52:34;4.80;;;2.73;;
18159;SDS011;9205;52.032;4.314;2023-02-28T04:55:02;5.67;;;2.80;;
18159;SDS011;9205;52.032;4.314;2023-02-28T04:57:31;5.43;;;2.50;;
18159;SDS011;9205;52.032;4.314;2023-02-28T04:59:59;6.10;;;2.43;;
18159;SDS011;9205;52.032;4.314;2023-02-28T05:02:31;4.03;;;2.50;;
18159;SDS011;9205;52.032;4.314;2023-02-28T05:05:01;6.83;;;2.63;;
18159;SDS011;9205;52.032;4.314;2023-02-28T05:07:29;4.10;;;2.50;;
18159;SDS011;9205;52.032;4.314;2023-02-28T05:09:56;4.87;;;2.40;;
18159;SDS011;9205;52.032;4.314;2023-02-28T05:12:24;5.73;;;2.60;;
18159;SDS011;9205;52.032;4.314;2023-02-28T05:14:52;4.03;;;2.50;;
18159;SDS011;9205;52.032;4.314;2023-02-28T05:17:20;3.47;;;2.43;;
18159;SDS011;9205;52.032;4.314;2023-02-28T05:19:49;3.90;;;2.43;;
18159;SDS011;9205;52.032;4.314;2023-02-28T05:22:19;4.83;;;2.43;;
18159;SDS011;9205;52.032;4.314;2023-02-28T05:24:47;4.13;;;2.50;;
18159;SDS011;9205;52.032;4.314;2023-02-28T05:27:18;6.13;;;2.43;;
18159;SDS011;9205;52.032;4.314;2023-02-28T05:29:53;4.87;;;2.80;;
18159;SDS011;9205;52.032;4.314;2023-02-28T05:32:21;4.37;;;2.90;;
18159;SDS011;9205;52.032;4.314;2023-02-28T05:34:50;8.80;;;2.73;;
18159;SDS011;9205;52.032;4.314;2023-02-28T05:37:18;4.73;;;2.93;;
18159;SDS011;9205;52.032;4.314;2023-02-28T05:39:46;5.30;;;3.10;;
18159;SDS011;9205;52.032;4.314;2023-02-28T05:42:16;3.17;;;2.30;;
18159;SDS011;9205;52.032;4.314;2023-02-28T05:44:44;6.07;;;3.10;;
18159;SDS011;9205;52.032;4.314;2023-02-28T05:47:12;7.80;;;3.30;;
18159;SDS011;9205;52.032;4.314;2023-02-28T05:49:41;8.30;;;3.17;;
18159;SDS011;9205;52.032;4.314;2023-02-28T05:52:10;5.17;;;2.97;;
18159;SDS011;9205;52.032;4.314;2023-02-28T05:54:37;5.00;;;3.10;;
18159;SDS011;9205;52.032;4.314;2023-02-28T05:57:05;5.30;;;3.27;;
18159;SDS011;9205;52.032;4.314;2023-02-28T05:59:33;4.57;;;2.80;;
18159;SDS011;9205;52.032;4.314;2023-02-28T06:02:05;5.87;;;2.97;;
18159;SDS011;9205;52.032;4.314;2023-02-28T06:04:43;5.97;;;3.13;;
18159;SDS011;9205;52.032;4.314;2023-02-28T06:07:13;8.93;;;3.47;;
18159;SDS011;9205;52.032;4.314;2023-02-28T06:09:42;6.43;;;3.60;;
18159;SDS011;9205;52.032;4.314;2023-02-28T06:12:10;7.33;;;3.67;;
18159;SDS011;9205;52.032;4.314;2023-02-28T06:14:39;7.17;;;3.77;;
18159;SDS011;9205;52.032;4.314;2023-02-28T06:17:08;5.77;;;3.43;;
18159;SDS011;9205;52.032;4.314;2023-02-28T06:19:36;6.23;;;3.40;;
18159;SDS011;9205;52.032;4.314;2023-02-28T06:22:06;5.70;;;3.37;;
18159;SDS011;9205;52.032;4.314;2023-02-28T06:24:35;7.77;;;3.43;;
18159;SDS011;9205;52.032;4.314;2023-02-28T06:27:03;6.50;;;3.53;;
18159;SDS011;9205;52.032;4.314;2023-02-28T06:29:35;6.90;;;3.93;;
18159;SDS011;9205;52.032;4.314;2023-02-28T06:32:05;5.70;;;3.00;;
18159;SDS011;9205;52.032;4.314;2023-02-28T06:34:34;5.07;;;3.30;;
18159;SDS011;9205;52.032;4.314;2023-02-28T06:37:02;6.87;;;3.50;;
18159;SDS011;9205;52.032;4.314;2023-02-28T06:39:30;4.80;;;3.33;;
18159;SDS011;9205;52.032;4.314;2023-02-28T06:41:59;10.97;;;4.10;;
18159;SDS011;9205;52.032;4.314;2023-02-28T06:44:30;5.57;;;3.60;;
18159;SDS011;9205;52.032;4.314;2023-02-28T06:47:00;6.40;;;3.30;;
18159;SDS011;9205;52.032;4.314;2023-02-28T06:49:29;6.90;;;3.87;;
18159;SDS011;9205;52.032;4.314;2023-02-28T06:52:00;7.27;;;3.60;;
18159;SDS011;9205;52.032;4.314;2023-02-28T06:54:27;8.30;;;3.20;;
18159;SDS011;9205;52.032;4.314;2023-02-28T06:56:55;8.33;;;3.50;;
18159;SDS011;9205;52.032;4.314;2023-02-28T06:59:29;7.60;;;4.13;;
18159;SDS011;9205;52.032;4.314;2023-02-28T07:01:56;9.53;;;4.10;;
18159;SDS011;9205;52.032;4.314;2023-02-28T07:04:25;7.57;;;4.00;;
18159;SDS011;9205;52.032;4.314;2023-02-28T07:06:53;11.17;;;3.57;;
18159;SDS011;9205;52.032;4.314;2023-02-28T07:09:22;7.27;;;3.63;;
18159;SDS011;9205;52.032;4.314;2023-02-28T07:11:49;5.90;;;3.77;;
18159;SDS011;9205;52.032;4.314;2023-02-28T07:14:18;12.03;;;3.87;;
18159;SDS011;9205;52.032;4.314;2023-02-28T07:16:47;7.80;;;3.60;;
18159;SDS011;9205;52.032;4.314;2023-02-28T07:19:15;5.77;;;3.30;;
18159;SDS011;9205;52.032;4.314;2023-02-28T07:21:42;6.13;;;3.57;;
18159;SDS011;9205;52.032;4.314;2023-02-28T07:24:10;10.30;;;3.60;;
18159;SDS011;9205;52.032;4.314;2023-02-28T07:26:40;4.27;;;3.07;;
18159;SDS011;9205;52.032;4.314;2023-02-28T07:29:12;6.77;;;3.10;;
18159;SDS011;9205;52.032;4.314;2023-02-28T07:31:44;5.07;;;3.37;;
18159;SDS011;9205;52.032;4.314;2023-02-28T07:34:12;3.57;;;2.30;;
18159;SDS011;9205;52.032;4.314;2023-02-28T07:36:40;4.03;;;3.00;;
18159;SDS011;9205;52.032;4.314;2023-02-28T07:39:07;4.60;;;2.97;;
18159;SDS011;9205;52.032;4.314;2023-02-28T07:41:35;4.20;;;2.47;;
18159;SDS011;9205;52.032;4.314;2023-02-28T07:44:08;8.70;;;2.53;;
18159;SDS011;9205;52.032;4.314;2023-02-28T07:46:37;4.17;;;2.50;;
18159;SDS011;9205;52.032;4.314;2023-02-28T07:49:07;2.93;;;2.20;;
18159;SDS011;9205;52.032;4.314;2023-02-28T07:51:34;4.00;;;2.27;;
18159;SDS011;9205;52.032;4.314;2023-02-28T07:54:03;3.17;;;2.17;;
18159;SDS011;9205;52.032;4.314;2023-02-28T07:56:31;3.43;;;2.47;;
18159;SDS011;9205;52.032;4.314;2023-02-28T07:58:59;2.83;;;2.07;;
18159;SDS011;9205;52.032;4.314;2023-02-28T08:01:27;2.83;;;2.37;;
18159;SDS011;9205;52.032;4.314;2023-02-28T08:03:55;2.97;;;2.30;;
18159;SDS011;9205;52.032;4.314;2023-02-28T08:06:24;3.83;;;2.30;;
18159;SDS011;9205;52.032;4.314;2023-02-28T08:08:52;4.87;;;2.60;;
18159;SDS011;9205;52.032;4.314;2023-02-28T08:11:26;6.53;;;2.73;;
18159;SDS011;9205;52.032;4.314;2023-02-28T08:13:54;3.97;;;2.10;;
18159;SDS011;9205;52.032;4.314;2023-02-28T08:16:24;3.73;;;2.27;;
18159;SDS011;9205;52.032;4.314;2023-02-28T08:18:53;6.13;;;2.50;;
18159;SDS011;9205;52.032;4.314;2023-02-28T08:21:21;4.17;;;2.40;;
18159;SDS011;9205;52.032;4.314;2023-02-28T08:23:50;5.73;;;2.57;;
18159;SDS011;9205;52.032;4.314;2023-02-28T08:26:18;4.13;;;2.50;;
18159;SDS011;9205;52.032;4.314;2023-02-28T08:28:47;3.97;;;2.40;;
18159;SDS011;9205;52.032;4.314;2023-02-28T08:31:15;5.00;;;2.90;;
18159;SDS011;9205;52.032;4.314;2023-02-28T08:33:44;3.10;;;2.50;;
18159;SDS011;9205;52.032;4.314;2023-02-28T08:36:13;5.63;;;2.47;;
18159;SDS011;9205;52.032;4.314;2023-02-28T08:38:43;5.17;;;2.80;;
18159;SDS011;9205;52.032;4.314;2023-02-28T08:41:11;4.07;;;2.50;;
18159;SDS011;9205;52.032;4.314;2023-02-28T08:43:45;4.00;;;2.30;;
18159;SDS011;9205;52.032;4.314;2023-02-28T08:46:22;3.63;;;2.53;;
18159;SDS011;9205;52.032;4.314;2023-02-28T08:48:51;3.63;;;2.20;;
18159;SDS011;9205;52.032;4.314;2023-02-28T08:51:20;4.60;;;2.80;;
18159;SDS011;9205;52.032;4.314;2023-02-28T08:53:53;4.13;;;2.47;;
18159;SDS011;9205;52.032;4.314;2023-02-28T08:56:22;4.07;;;2.67;;
18159;SDS011;9205;52.032;4.314;2023-02-28T08:58:51;3.43;;;2.33;;
18159;SDS011;9205;52.032;4.314;2023-02-28T09:01:22;3.67;;;2.60;;
18159;SDS011;9205;52.032;4.314;2023-02-28T09:03:54;3.90;;;2.67;;
18159;SDS011;9205;52.032;4.314;2023-02-28T09:06:23;5.63;;;2.67;;
18159;SDS011;9205;52.032;4.314;2023-02-28T09:08:59;3.93;;;2.87;;
18159;SDS011;9205;52.032;4.314;2023-02-28T09:11:31;5.00;;;2.47;;
18159;SDS011;9205;52.032;4.314;2023-02-28T09:13:59;4.67;;;2.83;;
18159;SDS011;9205;52.032;4.314;2023-02-28T09:16:28;4.30;;;2.40;;
18159;SDS011;9205;52.032;4.314;2023-02-28T09:18:57;4.30;;;2.43;;
18159;SDS011;9205;52.032;4.314;2023-02-28T09:21:25;3.63;;;2.30;;
18159;SDS011;9205;52.032;4.314;2023-02-28T09:23:57;3.83;;;2.83;;
18159;SDS011;9205;52.032;4.314;2023-02-28T09:26:26;5.87;;;2.37;;
18159;SDS011;9205;52.032;4.314;2023-02-28T09:28:54;3.07;;;1.90;;
18159;SDS011;9205;52.032;4.314;2023-02-28T09:31:25;3.33;;;2.20;;
18159;SDS011;9205;52.032;4.314;2023-02-28T09:33:55;4.13;;;2.47;;
18159;SDS011;9205;52.032;4.314;2023-02-28T09:36:24;3.17;;;1.90;;
18159;SDS011;9205;52.032;4.314;2023-02-28T09:38:56;3.17;;;2.40;;
18159;SDS011;9205;52.032;4.314;2023-02-28T09:41:26;4.33;;;2.00;;
18159;SDS011;9205;52.032;4.314;2023-02-28T09:44:05;3.50;;;2.00;;
18159;SDS011;9205;52.032;4.314;2023-02-28T09:46:44;4.00;;;2.00;;
18159;SDS011;9205;52.032;4.314;2023-02-28T09:49:22;4.13;;;2.27;;
18159;SDS011;9205;52.032;4.314;2023-02-28T09:51:58;3.30;;;1.90;;
18159;SDS011;9205;52.032;4.314;2023-02-28T09:54:32;3.93;;;2.60;;
18159;SDS011;9205;52.032;4.314;2023-02-28T09:57:06;3.33;;;1.93;;
18159;SDS011;9205;52.032;4.314;2023-02-28T09:59:44;4.30;;;2.10;;
18159;SDS011;9205;52.032;4.314;2023-02-28T10:05:54;3.13;;;2.10;;
18159;SDS011;9205;52.032;4.314;2023-02-28T10:08:32;3.33;;;1.83;;
18159;SDS011;9205;52.032;4.314;2023-02-28T10:11:14;2.87;;;1.70;;
18159;SDS011;9205;52.032;4.314;2023-02-28T10:13:49;2.73;;;2.13;;
18159;SDS011;9205;52.032;4.314;2023-02-28T10:16:25;3.30;;;2.10;;
18159;SDS011;9205;52.032;4.314;2023-02-28T10:19:05;2.93;;;1.77;;
18159;SDS011;9205;52.032;4.314;2023-02-28T10:21:43;3.93;;;1.60;;
18159;SDS011;9205;52.032;4.314;2023-02-28T10:24:23;2.80;;;1.90;;
18159;SDS011;9205;52.032;4.314;2023-02-28T10:27:00;2.87;;;2.10;;
18159;SDS011;9205;52.032;4.314;2023-02-28T10:29:42;2.57;;;1.80;;
18159;SDS011;9205;52.032;4.314;2023-02-28T10:32:17;3.17;;;2.17;;
18159;SDS011;9205;52.032;4.314;2023-02-28T10:34:49;3.03;;;2.13;;
18159;SDS011;9205;52.032;4.314;2023-02-28T10:37:20;10.83;;;2.23;;
18159;SDS011;9205;52.032;4.314;2023-02-28T10:39:48;4.70;;;2.10;;
18159;SDS011;9205;52.032;4.314;2023-02-28T10:42:21;3.43;;;2.53;;
18159;SDS011;9205;52.032;4.314;2023-02-28T10:45:19;3.70;;;2.20;;
18159;SDS011;9205;52.032;4.314;2023-02-28T10:48:44;3.27;;;1.93;;
18159;SDS011;9205;52.032;4.314;2023-02-28T10:51:26;3.80;;;2.20;;
18159;SDS011;9205;52.032;4.314;2023-02-28T10:54:04;2.73;;;2.37;;
18159;SDS011;9205;52.032;4.314;2023-02-28T10:56:32;3.13;;;2.03;;
18159;SDS011;9205;52.032;4.314;2023-02-28T10:59:02;2.33;;;1.90;;
18159;SDS011;9205;52.032;4.314;2023-02-28T11:01:53;3.03;;;1.90;;
18159;SDS011;9205;52.032;4.314;2023-02-28T11:04:31;2.20;;;2.00;;
18159;SDS011;9205;52.032;4.314;2023-02-28T11:07:05;2.90;;;1.90;;
18159;SDS011;9205;52.032;4.314;2023-02-28T11:09:48;3.20;;;2.10;;
18159;SDS011;9205;52.032;4.314;2023-02-28T11:12:22;3.40;;;2.20;;
18159;SDS011;9205;52.032;4.314;2023-02-28T11:14:56;3.23;;;2.30;;
18159;SDS011;9205;52.032;4.314;2023-02-28T11:17:28;3.43;;;2.10;;
18159;SDS011;9205;52.032;4.314;2023-02-28T11:19:59;4.30;;;1.87;;
18159;SDS011;9205;52.032;4.314;2023-02-28T11:22:32;4.87;;;2.10;;
18159;SDS011;9205;52.032;4.314;2023-02-28T11:25:06;3.63;;;1.97;;
18159;SDS011;9205;52.032;4.314;2023-02-28T11:27:44;1.90;;;1.70;;
18159;SDS011;9205;52.032;4.314;2023-02-28T11:30:27;2.17;;;1.87;;
18159;SDS011;9205;52.032;4.314;2023-02-28T11:33:00;2.47;;;1.77;;
18159;SDS011;9205;52.032;4.314;2023-02-28T11:35:47;3.60;;;1.97;;
18159;SDS011;9205;52.032;4.314;2023-02-28T11:38:18;2.93;;;2.00;;
18159;SDS011;9205;52.032;4.314;2023-02-28T11:40:52;2.80;;;1.93;;
18159;SDS011;9205;52.032;4.314;2023-02-28T11:43:44;1.93;;;1.73;;
18159;SDS011;9205;52.032;4.314;2023-02-28T11:46:29;2.30;;;1.80;;
18159;SDS011;9205;52.032;4.314;2023-02-28T11:49:12;2.33;;;1.63;;
18159;SDS011;9205;52.032;4.314;2023-02-28T11:51:57;4.53;;;1.73;;
18159;SDS011;9205;52.032;4.314;2023-02-28T11:57:47;3.13;;;2.07;;
18159;SDS011;9205;52.032;4.314;2023-02-28T12:00:50;2.07;;;1.60;;
18159;SDS011;9205;52.032;4.314;2023-02-28T12:03:36;2.10;;;1.73;;
18159;SDS011;9205;52.032;4.314;2023-02-28T12:06:20;1.80;;;1.50;;
18159;SDS011;9205;52.032;4.314;2023-02-28T12:09:02;3.47;;;2.13;;
18159;SDS011;9205;52.032;4.314;2023-02-28T12:11:51;2.47;;;1.90;;
18159;SDS011;9205;52.032;4.314;2023-02-28T12:14:28;2.03;;;1.80;;
18159;SDS011;9205;52.032;4.314;2023-02-28T12:17:29;5.30;;;2.10;;
18159;SDS011;9205;52.032;4.314;2023-02-28T12:20:21;2.90;;;1.80;;
18159;SDS011;9205;52.032;4.314;2023-02-28T12:23:04;3.07;;;1.53;;
18159;SDS011;9205;52.032;4.314;2023-02-28T12:26:01;2.87;;;1.70;;
18159;SDS011;9205;52.032;4.314;2023-02-28T12:28:40;3.20;;;1.80;;
18159;SDS011;9205;52.032;4.314;2023-02-28T12:31:15;2.50;;;1.80;;
18159;SDS011;9205;52.032;4.314;2023-02-28T12:33:50;3.07;;;1.83;;
18159;SDS011;9205;52.032;4.314;2023-02-28T12:36:26;2.73;;;1.77;;
18159;SDS011;9205;52.032;4.314;2023-02-28T12:38:58;3.87;;;1.60;;
18159;SDS011;9205;52.032;4.314;2023-02-28T12:41:36;2.00;;;1.60;;
18159;SDS011;9205;52.032;4.314;2023-02-28T12:44:13;3.73;;;1.83;;
18159;SDS011;9205;52.032;4.314;2023-02-28T12:46:52;1.60;;;1.50;;
18159;SDS011;9205;52.032;4.314;2023-02-28T12:49:30;2.83;;;1.90;;
18159;SDS011;9205;52.032;4.314;2023-02-28T12:52:05;2.47;;;1.57;;
18159;SDS011;9205;52.032;4.314;2023-02-28T12:54:38;2.03;;;1.70;;
18159;SDS011;9205;52.032;4.314;2023-02-28T12:57:16;1.77;;;1.60;;
18159;SDS011;9205;52.032;4.314;2023-02-28T13:00:00;3.70;;;1.37;;
18159;SDS011;9205;52.032;4.314;2023-02-28T13:02:45;1.53;;;1.40;;
18159;SDS011;9205;52.032;4.314;2023-02-28T13:05:39;3.40;;;1.67;;
18159;SDS011;9205;52.032;4.314;2023-02-28T13:08:41;2.47;;;1.90;;
18159;SDS011;9205;52.032;4.314;2023-02-28T13:11:38;1.93;;;1.57;;
18159;SDS011;9205;52.032;4.314;2023-02-28T13:14:22;1.70;;;1.60;;
18159;SDS011;9205;52.032;4.314;2023-02-28T13:16:58;3.00;;;1.70;;
18159;SDS011;9205;52.032;4.314;2023-02-28T13:19:40;1.90;;;1.70;;
18159;SDS011;9205;52.032;4.314;2023-02-28T13:22:17;1.63;;;1.50;;
18159;SDS011;9205;52.032;4.314;2023-02-28T13:38:36;2.83;;;1.77;;
18159;SDS011;9205;52.032;4.314;2023-02-28T13:44:18;2.87;;;1.70;;
18159;SDS011;9205;52.032;4.314;2023-02-28T13:49:55;2.13;;;1.70;;
18159;SDS011;9205;52.032;4.314;2023-02-28T13:53:17;5.20;;;1.80;;
18159;SDS011;9205;52.032;4.314;2023-02-28T13:59:18;1.77;;;1.60;;
18159;SDS011;9205;52.032;4.314;2023-02-28T14:02:01;2.33;;;1.80;;
18159;SDS011;9205;52.032;4.314;2023-02-28T14:05:00;2.97;;;1.77;;
18159;SDS011;9205;52.032;4.314;2023-02-28T14:07:33;2.93;;;1.70;;
18159;SDS011;9205;52.032;4.314;2023-02-28T14:10:15;2.37;;;1.80;;
18159;SDS011;9205;52.032;4.314;2023-02-28T14:12:57;3.57;;;1.80;;
18159;SDS011;9205;52.032;4.314;2023-02-28T14:15:49;2.33;;;1.60;;
18159;SDS011;9205;52.032;4.314;2023-02-28T14:18:25;2.33;;;1.77;;
18159;SDS011;9205;52.032;4.314;2023-02-28T14:20:58;3.83;;;1.97;;
18159;SDS011;9205;52.032;4.314;2023-02-28T14:23:46;2.30;;;2.00;;
18159;SDS011;9205;52.032;4.314;2023-02-28T14:26:55;2.17;;;1.50;;
18159;SDS011;9205;52.032;4.314;2023-02-28T14:33:19;1.60;;;1.50;;
18159;SDS011;9205;52.032;4.314;2023-02-28T14:36:08;5.07;;;1.90;;
18159;SDS011;9205;52.032;4.314;2023-02-28T14:38:46;2.50;;;2.00;;
18159;SDS011;9205;52.032;4.314;2023-02-28T14:41:20;2.47;;;1.73;;
18159;SDS011;9205;52.032;4.314;2023-02-28T14:43:53;2.90;;;1.63;;
18159;SDS011;9205;52.032;4.314;2023-02-28T14:46:26;5.73;;;1.90;;
18159;SDS011;9205;52.032;4.314;2023-02-28T14:49:03;2.67;;;2.07;;
18159;SDS011;9205;52.032;4.314;2023-02-28T14:51:33;2.70;;;1.67;;
18159;SDS011;9205;52.032;4.314;2023-02-28T14:54:02;1.70;;;1.60;;
18159;SDS011;9205;52.032;4.314;2023-02-28T14:56:34;1.77;;;1.67;;
18159;SDS011;9205;52.032;4.314;2023-02-28T14:59:20;2.53;;;1.80;;
18159;SDS011;9205;52.032;4.314;2023-02-28T15:02:15;1.53;;;1.43;;
18159;SDS011;9205;52.032;4.314;2023-02-28T15:04:52;1.80;;;1.50;;
18159;SDS011;9205;52.032;4.314;2023-02-28T15:07:31;2.17;;;1.43;;
18159;SDS011;9205;52.032;4.314;2023-02-28T15:10:09;2.27;;;1.70;;
18159;SDS011;9205;52.032;4.314;2023-02-28T15:12:46;2.67;;;1.50;;
18159;SDS011;9205;52.032;4.314;2023-02-28T15:15:21;2.47;;;1.60;;
18159;SDS011;9205;52.032;4.314;2023-02-28T15:17:55;2.47;;;1.70;;
18159;SDS011;9205;52.032;4.314;2023-02-28T15:20:27;3.33;;;1.80;;
18159;SDS011;9205;52.032;4.314;2023-02-28T15:22:59;2.47;;;1.60;;
18159;SDS011;9205;52.032;4.314;2023-02-28T15:25:28;1.77;;;1.67;;
18159;SDS011;9205;52.032;4.314;2023-02-28T15:27:56;3.30;;;1.60;;
18159;SDS011;9205;52.032;4.314;2023-02-28T15:30:25;1.57;;;1.47;;
18159;SDS011;9205;52.032;4.314;2023-02-28T15:33:06;1.60;;;1.50;;
18159;SDS011;9205;52.032;4.314;2023-02-28T15:35:46;2.70;;;1.70;;
18159;SDS011;9205;52.032;4.314;2023-02-28T15:38:21;1.60;;;1.50;;
18159;SDS011;9205;52.032;4.314;2023-02-28T15:40:55;2.67;;;1.60;;
18159;SDS011;9205;52.032;4.314;2023-02-28T15:43:25;3.37;;;1.90;;
18159;SDS011;9205;52.032;4.314;2023-02-28T15:45:59;2.80;;;1.70;;
18159;SDS011;9205;52.032;4.314;2023-02-28T15:48:44;2.40;;;1.53;;
18159;SDS011;9205;52.032;4.314;2023-02-28T15:51:22;1.90;;;1.63;;
18159;SDS011;9205;52.032;4.314;2023-02-28T15:54:14;3.60;;;1.80;;
18159;SDS011;9205;52.032;4.314;2023-02-28T15:56:57;2.67;;;2.10;;
18159;SDS011;9205;52.032;4.314;2023-02-28T15:59:34;2.07;;;1.70;;
18159;SDS011;9205;52.032;4.314;2023-02-28T16:02:14;2.20;;;1.70;;
18159;SDS011;9205;52.032;4.314;2023-02-28T16:04:57;2.13;;;1.60;;
18159;SDS011;9205;52.032;4.314;2023-02-28T16:07:47;2.37;;;1.70;;
18159;SDS011;9205;52.032;4.314;2023-02-28T16:10:17;1.80;;;1.70;;
18159;SDS011;9205;52.032;4.314;2023-02-28T16:12:45;2.03;;;1.83;;
18159;SDS011;9205;52.032;4.314;2023-02-28T16:15:17;3.83;;;1.80;;
18159;SDS011;9205;52.032;4.314;2023-02-28T16:17:57;1.87;;;1.60;;
18159;SDS011;9205;52.032;4.314;2023-02-28T16:20:28;2.43;;;1.70;;
18159;SDS011;9205;52.032;4.314;2023-02-28T16:22:57;2.67;;;1.70;;
18159;SDS011;9205;52.032;4.314;2023-02-28T16:25:33;2.47;;;1.87;;
18159;SDS011;9205;52.032;4.314;2023-02-28T16:28:06;2.80;;;1.50;;